Карточка аэропорта USTR

Внимание!
Информация на этой странице в стадии наполнения.
Если вы не увидели какой-то информации, или заметили неточность - пожалуйста сообщите нам!
Спасибо!
Команда RU-STAFF
Название аэропортаРощино
Название аэропорта (англ.)Roshschino
Превышение378 ft. (115.2 m.)
Координаты57°10.098', 65°19.002'
Высота перехода700m
Эшелон переходаFL040
Коды ответчика5101-5137
Зона ОрВДТюмень РПИ (USTV)
Данные METARUSTR 172130Z 31004MPS 8000 MIFG NSC 06/06 Q1022 R21/290060 R30/////99 TEMPO 0200 FG VV002
Проноз погоды (TAF)USTR 172104Z 1721/1821 33003MPS 3100 BR SCT016 TEMPO 1721/1802 0200 FG VV002 FM180200 34005G10MPS 9999 BKN020 TEMPO 1806/1815 36006G12MPS 4000 -SHRA BKN016CB FM181500 33003MPS 6000 SCT016 TEMPO 1818/1821 0300 FG VV002
NOTAMshow/hide NOTAM
AWOS   TABLE

Информация о ВПП

ВПП Длина ВПП (м.) Покрытие Курс ВПП Частота ILS
122704Асфальтобетон121 
302704Асфальтобетон301 
033003Асфальтобетон34108.3
213003Асфальтобетон214110.7

Диспетчерские позиции

Позывной Наименование органа УВД Частота
USTR_GNDТюмень-Руление119.000
USTR_TWRТюмень-Старт118.200
USTR_R_APPТюмень-Круг126.100



Спутниковое изображение